Карточка аэропорта UHWW

Внимание!
Информация на этой странице в стадии наполнения.
Если вы не увидели какой-то информации, или заметили неточность - пожалуйста сообщите нам!
Спасибо!
Команда RU-STAFF
Название аэропортаКневичи
Название аэропорта (англ.)Knevichi
Превышение59 ft. (18 m.)
Координаты43°23.886', 132°8.9400000000001'
Высота перехода7000ft
Эшелон переходаQNH>=1013hPa: FL80; 1013hPa>QNH>=977hPa: FL90; QNH<977hPa: FL100
Коды ответчика5050-5077
Зона ОрВДХабаровск РПИ (UHHH)
Данные METARUHWW 161100Z 06001MPS 4400 -SHRA BKN004 BKN020CB 08/08 Q1006 R25L/290160 NOSIG RMK QBB120 MT OBSC QFE753
Проноз погоды (TAF)UHWW 160943Z 1610/1709 27003G08MPS 6000 -SHRA FEW003 BKN020CB TEMPO 1610/1622 VRB01MPS 0300 TSRA FG BKN002 BKN016CB BECMG 1622/1624 35003G10MPS 9999 NSW
NOTAMshow/hide NOTAM
AWOS   TABLE

Информация о ВПП

ВПП Длина ВПП (м.) Покрытие Курс ВПП Частота ILS
07R3500Бетон71109.3
25L3500Бетон251110.1

Диспетчерские позиции

Позывной Наименование органа УВД Частота
UHWW-FM1Машина сопровождения121.700
UHWW_APPВладивосток-Подход124.7
UHWW_GNDВладивосток-Руление121.7
UHWW_R_APPВладивосток-Круг123.4
UHWW_TWRВладивосток-Старт119.5



Спутниковое изображение